createdAt,value
2022-08-20T00:00:23.509Z,76.82
2022-08-20T00:03:41.669Z,76.80
2022-08-20T00:06:48.815Z,76.73
2022-08-20T00:09:51.801Z,76.68
2022-08-20T00:12:55.690Z,76.64
2022-08-20T00:15:59.608Z,76.73
2022-08-20T00:19:07.313Z,76.71
2022-08-20T00:22:10.219Z,76.58
2022-08-20T00:25:14.008Z,76.55
2022-08-20T00:28:17.446Z,76.60
2022-08-20T00:31:22.950Z,76.48
2022-08-20T00:34:25.964Z,76.41
2022-08-20T00:37:28.901Z,76.37
2022-08-20T00:40:45.701Z,76.39
2022-08-20T00:44:05.001Z,76.47
2022-08-20T00:47:09.300Z,76.43
2022-08-20T00:50:15.531Z,76.41
2022-08-20T00:53:23.590Z,76.42
2022-08-20T00:56:26.746Z,76.58
2022-08-20T00:59:31.490Z,76.69
2022-08-20T01:02:35.270Z,76.81
2022-08-20T01:05:40.151Z,76.84
2022-08-20T01:08:43.208Z,76.89
2022-08-20T01:11:46.485Z,76.95
2022-08-20T01:14:49.702Z,77.01
2022-08-20T01:17:57.962Z,77.07
2022-08-20T01:21:06.025Z,77.00
2022-08-20T01:24:16.670Z,77.06
2022-08-20T01:27:19.883Z,77.12
2022-08-20T01:30:26.351Z,77.24
2022-08-20T01:33:29.460Z,77.14
2022-08-20T01:36:43.034Z,77.13
2022-08-20T01:39:48.539Z,77.27
2022-08-20T01:42:58.980Z,77.24
2022-08-20T01:46:04.651Z,77.34
2022-08-20T01:49:15.667Z,77.31
2022-08-20T01:52:36.636Z,77.41
2022-08-20T01:55:39.653Z,77.31
2022-08-20T01:58:49.745Z,77.28
2022-08-20T02:02:00.234Z,77.30
2022-08-20T02:05:04.658Z,77.26
2022-08-20T02:08:07.664Z,77.34
2022-08-20T02:11:12.958Z,77.34
2022-08-20T02:14:16.792Z,77.33
2022-08-20T02:17:22.928Z,77.32
2022-08-20T02:20:30.360Z,77.31
2022-08-20T02:23:35.819Z,77.30
2022-08-20T02:26:39.745Z,77.33
2022-08-20T02:29:42.746Z,77.34
2022-08-20T02:32:45.766Z,77.32
2022-08-20T02:35:49.906Z,77.38
2022-08-20T02:38:52.963Z,77.39
2022-08-20T02:41:56.072Z,77.44
2022-08-20T02:44:59.016Z,77.41
2022-08-20T02:48:01.948Z,77.40
2022-08-20T02:51:06.929Z,77.37
2022-08-20T02:54:10.262Z,77.40
2022-08-20T02:57:15.117Z,77.42
2022-08-20T03:00:20.929Z,77.52
2022-08-20T03:03:24.545Z,77.55
2022-08-20T03:06:28.087Z,77.53
2022-08-20T03:09:31.019Z,77.60
2022-08-20T03:12:34.339Z,77.64
2022-08-20T03:15:37.500Z,77.68
2022-08-20T03:18:44.432Z,77.75
2022-08-20T03:21:47.741Z,77.74
2022-08-20T03:24:50.661Z,77.65
2022-08-20T03:27:57.500Z,77.64
2022-08-20T03:31:01.413Z,77.64
2022-08-20T03:34:04.518Z,77.66
2022-08-20T03:37:07.510Z,77.65
2022-08-20T03:40:15.583Z,77.66
2022-08-20T03:43:18.838Z,77.69
2022-08-20T03:46:23.076Z,77.81
2022-08-20T03:49:26.824Z,77.82
2022-08-20T03:52:29.842Z,77.81
2022-08-20T03:55:32.975Z,77.79
2022-08-20T03:58:36.625Z,77.82
2022-08-20T04:01:46.364Z,77.87
2022-08-20T04:04:49.663Z,77.98
2022-08-20T04:07:52.751Z,77.97
2022-08-20T04:10:57.819Z,77.96
2022-08-20T04:14:00.672Z,77.97
2022-08-20T04:17:10.676Z,78.07
2022-08-20T04:20:19.229Z,78.18
2022-08-20T04:23:22.568Z,78.26
2022-08-20T04:26:25.944Z,78.34
2022-08-20T04:29:32.490Z,78.43
2022-08-20T04:32:37.005Z,78.60
2022-08-20T04:35:41.259Z,78.73
2022-08-20T04:38:47.807Z,78.78
2022-08-20T04:41:53.155Z,78.75
2022-08-20T04:44:56.013Z,78.86
2022-08-20T04:48:05.741Z,79.02
2022-08-20T04:51:09.732Z,79.15
2022-08-20T04:54:14.348Z,79.27
2022-08-20T04:57:17.295Z,79.24
2022-08-20T05:00:20.292Z,79.38
2022-08-20T05:03:24.880Z,79.51
2022-08-20T05:06:31.146Z,79.59
2022-08-20T05:09:35.078Z,79.68
2022-08-20T05:12:56.829Z,79.72
2022-08-20T05:16:02.066Z,79.79
2022-08-20T05:19:07.018Z,79.82
2022-08-20T05:22:09.958Z,79.95
2022-08-20T05:25:13.038Z,80.10
2022-08-20T05:28:23.168Z,80.19
2022-08-20T05:31:31.375Z,80.26
2022-08-20T05:34:37.070Z,80.36
2022-08-20T05:37:43.761Z,80.38
2022-08-20T05:40:48.022Z,80.32
2022-08-20T05:43:51.537Z,80.56
2022-08-20T05:46:54.690Z,80.68
2022-08-20T05:49:57.953Z,80.68
2022-08-20T05:53:02.013Z,80.74
2022-08-20T05:56:05.114Z,80.89
2022-08-20T05:59:09.654Z,80.95
2022-08-20T06:02:30.985Z,80.85
2022-08-20T06:05:34.715Z,80.86
2022-08-20T06:08:37.915Z,80.91
2022-08-20T06:11:40.802Z,81.10
2022-08-20T06:14:47.373Z,81.22
2022-08-20T06:17:55.105Z,81.31
2022-08-20T06:21:01.515Z,81.34
2022-08-20T06:24:04.907Z,81.32
2022-08-20T06:27:07.941Z,81.45
2022-08-20T06:30:13.717Z,81.23
2022-08-20T06:33:16.692Z,81.44
2022-08-20T06:36:20.082Z,81.49
2022-08-20T06:39:24.552Z,81.55
2022-08-20T06:42:27.501Z,81.59
2022-08-20T06:45:32.923Z,81.35
2022-08-20T06:48:36.053Z,80.78
2022-08-20T06:51:41.337Z,80.81
2022-08-20T06:54:45.912Z,80.77
2022-08-20T06:57:59.956Z,81.19
2022-08-20T07:01:09.488Z,81.19
2022-08-20T07:04:13.748Z,80.95
2022-08-20T07:07:20.622Z,80.90
2022-08-20T07:10:25.278Z,80.65
2022-08-20T07:13:29.308Z,80.50
2022-08-20T07:16:32.392Z,80.63
2022-08-20T07:19:38.443Z,80.07
2022-08-20T07:22:43.589Z,79.82
2022-08-20T07:25:46.595Z,79.90
2022-08-20T07:28:49.574Z,79.85
2022-08-20T07:32:10.854Z,79.52
2022-08-20T07:35:18.109Z,79.60
2022-08-20T07:38:25.326Z,79.47
2022-08-20T07:41:28.551Z,79.20
2022-08-20T07:44:31.497Z,79.28
2022-08-20T07:47:35.895Z,79.13
2022-08-20T07:50:43.011Z,78.77
2022-08-20T07:53:47.732Z,78.73
2022-08-20T07:56:50.655Z,78.85
2022-08-20T07:59:53.584Z,78.71
2022-08-20T08:02:56.566Z,78.77
2022-08-20T08:06:00.442Z,78.71
2022-08-20T08:09:10.071Z,78.65
2022-08-20T08:12:15.063Z,78.66
2022-08-20T08:15:23.994Z,78.31
2022-08-20T08:18:31.989Z,78.31
2022-08-20T08:21:35.042Z,77.78
2022-08-20T08:24:39.480Z,77.51
2022-08-20T08:27:43.112Z,77.68
2022-08-20T08:30:48.212Z,77.93
2022-08-20T08:33:51.466Z,78.30
2022-08-20T08:36:54.384Z,78.17
2022-08-20T08:39:59.470Z,77.65
2022-08-20T08:43:04.395Z,76.80
2022-08-20T08:46:11.342Z,76.60
2022-08-20T08:49:18.402Z,73.66
2022-08-20T08:52:26.273Z,74.05
2022-08-20T08:55:31.210Z,73.94
2022-08-20T08:58:37.154Z,73.27
2022-08-20T09:01:54.324Z,73.32
2022-08-20T09:05:02.267Z,73.09
2022-08-20T09:08:14.966Z,72.28
2022-08-20T09:11:22.517Z,71.03
2022-08-20T09:14:25.548Z,71.74
2022-08-20T09:17:28.565Z,71.51
2022-08-20T09:20:31.546Z,70.59
2022-08-20T09:23:34.670Z,70.28
2022-08-20T09:26:39.283Z,70.95
2022-08-20T09:29:42.682Z,71.97
2022-08-20T09:32:46.631Z,72.08
2022-08-20T09:35:49.655Z,72.84
2022-08-20T09:38:52.574Z,73.30
2022-08-20T09:41:55.442Z,73.61
2022-08-20T09:45:06.326Z,73.12
2022-08-20T09:48:14.072Z,72.90
2022-08-20T09:51:17.484Z,72.78
2022-08-20T09:54:23.025Z,73.71
2022-08-20T09:57:26.606Z,72.55
2022-08-20T10:00:29.790Z,73.28
2022-08-20T10:03:32.751Z,73.04
2022-08-20T10:06:40.769Z,73.41
2022-08-20T10:09:43.917Z,72.24
2022-08-20T10:12:48.129Z,72.68
2022-08-20T10:16:13.441Z,72.22
2022-08-20T10:19:16.583Z,70.84
2022-08-20T10:22:19.508Z,70.90
2022-08-20T10:25:23.107Z,71.59
2022-08-20T10:28:26.026Z,71.77
2022-08-20T10:31:28.992Z,71.83
2022-08-20T10:34:32.083Z,72.42
2022-08-20T10:37:36.478Z,72.46
2022-08-20T10:40:39.592Z,71.82
2022-08-20T10:43:42.614Z,72.43
2022-08-20T10:46:45.866Z,72.72
2022-08-20T10:49:53.850Z,73.00
2022-08-20T10:52:56.865Z,72.92
2022-08-20T10:56:00.016Z,72.71
2022-08-20T10:59:03.540Z,72.41
2022-08-20T11:02:06.575Z,72.26
2022-08-20T11:05:09.955Z,72.32
2022-08-20T11:08:13.296Z,71.97
2022-08-20T11:11:16.208Z,72.31
2022-08-20T11:14:19.184Z,72.46
2022-08-20T11:17:28.854Z,72.38
2022-08-20T11:20:32.220Z,72.67
2022-08-20T11:23:35.406Z,72.63
2022-08-20T11:26:38.424Z,72.22
2022-08-20T11:29:41.295Z,72.03
2022-08-20T11:32:46.543Z,71.53
2022-08-20T11:35:50.275Z,71.50
2022-08-20T11:38:53.714Z,72.16
2022-08-20T11:41:56.782Z,71.91
2022-08-20T11:44:59.722Z,72.05
2022-08-20T11:48:02.788Z,72.08
2022-08-20T11:51:05.931Z,72.22
2022-08-20T11:54:08.892Z,71.66
2022-08-20T11:57:23.382Z,70.79
2022-08-20T12:00:32.199Z,70.97
2022-08-20T12:03:37.327Z,70.21
2022-08-20T12:06:40.293Z,70.47
2022-08-20T12:09:51.170Z,70.60
2022-08-20T12:12:55.335Z,70.38
2022-08-20T12:15:58.922Z,70.54
2022-08-20T12:19:01.878Z,71.37
2022-08-20T12:22:21.341Z,72.10
2022-08-20T12:25:27.980Z,72.52
2022-08-20T12:28:31.428Z,72.66
2022-08-20T12:31:34.457Z,72.86
2022-08-20T12:34:39.076Z,73.44
2022-08-20T12:37:43.185Z,73.90
2022-08-20T12:40:46.638Z,74.15
2022-08-20T12:43:49.519Z,74.45
2022-08-20T12:46:52.399Z,74.73
2022-08-20T12:50:05.554Z,75.13
2022-08-20T12:53:09.316Z,75.13
2022-08-20T12:56:12.158Z,74.93
2022-08-20T12:59:15.377Z,75.48
2022-08-20T13:02:18.854Z,75.43
2022-08-20T13:05:23.288Z,75.84
2022-08-20T13:08:26.266Z,76.41
2022-08-20T13:11:29.719Z,76.40
2022-08-20T13:14:32.676Z,76.40
2022-08-20T13:17:38.952Z,76.84
2022-08-20T13:20:42.603Z,76.74
2022-08-20T13:23:45.598Z,76.79
2022-08-20T13:26:49.979Z,77.16
2022-08-20T13:29:58.544Z,77.29
2022-08-20T13:33:02.259Z,77.18
2022-08-20T13:36:05.857Z,77.25
2022-08-20T13:39:08.922Z,76.95
2022-08-20T13:42:13.457Z,77.06
2022-08-20T13:45:16.425Z,76.84
2022-08-20T13:48:19.367Z,76.99
2022-08-20T13:51:22.295Z,77.21
2022-08-20T13:54:30.246Z,77.32
2022-08-20T13:57:34.237Z,77.13
2022-08-20T14:00:37.261Z,77.13
2022-08-20T14:03:40.289Z,77.26
2022-08-20T14:06:45.745Z,77.59
2022-08-20T14:09:55.425Z,77.84
2022-08-20T14:12:59.447Z,78.04
2022-08-20T14:16:02.355Z,78.06
2022-08-20T14:19:05.966Z,77.97
2022-08-20T14:22:08.990Z,78.07
2022-08-20T14:25:14.266Z,77.99
2022-08-20T14:28:20.435Z,77.77
2022-08-20T14:31:23.300Z,77.74
2022-08-20T14:34:26.246Z,77.61
2022-08-20T14:37:34.836Z,77.51
2022-08-20T14:40:37.835Z,77.53
2022-08-20T14:43:40.788Z,77.49
2022-08-20T14:46:43.726Z,77.52
2022-08-20T14:49:48.179Z,77.58
2022-08-20T14:52:51.624Z,77.62
2022-08-20T14:55:54.555Z,77.69
2022-08-20T14:58:57.395Z,77.74
2022-08-20T15:02:00.801Z,77.59
2022-08-20T15:05:06.951Z,77.57
2022-08-20T15:08:11.037Z,77.65
2022-08-20T15:11:14.435Z,77.77
2022-08-20T15:14:18.535Z,77.94
2022-08-20T15:17:27.082Z,77.89
2022-08-20T15:20:32.421Z,77.86
2022-08-20T15:23:35.334Z,77.91
2022-08-20T15:26:38.377Z,77.90
2022-08-20T15:29:41.972Z,78.03
2022-08-20T15:32:45.226Z,77.93
2022-08-20T15:35:48.147Z,77.87
2022-08-20T15:38:51.214Z,77.75
2022-08-20T15:41:54.096Z,77.59
2022-08-20T15:44:57.583Z,77.44
2022-08-20T15:48:19.281Z,77.53
2022-08-20T15:51:33.197Z,77.55
2022-08-20T15:54:36.681Z,77.60
2022-08-20T15:57:53.085Z,77.63
2022-08-20T16:01:24.536Z,77.66
2022-08-20T16:04:56.968Z,77.58
2022-08-20T16:08:18.112Z,77.71
2022-08-20T16:11:33.315Z,77.71
2022-08-20T16:14:45.258Z,77.64
2022-08-20T16:17:58.268Z,77.55
2022-08-20T16:21:06.013Z,77.53
2022-08-20T16:24:12.866Z,77.24
2022-08-20T16:27:33.080Z,77.31
2022-08-20T16:30:39.079Z,77.28
2022-08-20T16:33:51.102Z,77.23
2022-08-20T16:37:04.279Z,77.22
2022-08-20T16:40:30.052Z,77.27
2022-08-20T16:43:40.136Z,77.47
2022-08-20T16:46:52.118Z,77.59
2022-08-20T16:50:20.477Z,77.69
2022-08-20T16:53:25.680Z,77.81
2022-08-20T16:56:37.934Z,77.89
2022-08-20T17:00:05.615Z,77.76
2022-08-20T17:03:31.734Z,77.81
2022-08-20T17:06:47.084Z,77.84
2022-08-20T17:09:50.345Z,77.85
2022-08-20T17:13:00.056Z,77.90
2022-08-20T17:16:17.151Z,78.03
2022-08-20T17:19:30.615Z,78.09
2022-08-20T17:22:42.661Z,78.12
2022-08-20T17:25:56.463Z,78.16
2022-08-20T17:29:03.040Z,78.09
2022-08-20T17:32:16.762Z,78.15
2022-08-20T17:35:28.993Z,78.18
2022-08-20T17:38:41.341Z,78.16
2022-08-20T17:41:49.122Z,78.10
2022-08-20T17:45:04.411Z,78.17
2022-08-20T17:48:13.733Z,78.25
2022-08-20T17:51:19.852Z,78.14
2022-08-20T17:54:41.521Z,78.26
2022-08-20T17:57:48.065Z,78.20
2022-08-20T18:00:51.117Z,78.31
2022-08-20T18:03:54.627Z,78.34
2022-08-20T18:07:17.137Z,78.32
2022-08-20T18:10:26.861Z,78.45
2022-08-20T18:13:44.855Z,78.54
2022-08-20T18:17:30.087Z,78.53
2022-08-20T18:20:54.478Z,78.61
2022-08-20T18:24:14.942Z,78.67
2022-08-20T18:27:22.508Z,78.73
2022-08-20T18:30:26.864Z,78.80
2022-08-20T18:33:40.882Z,78.87
2022-08-20T18:37:00.545Z,78.87
2022-08-20T18:40:14.496Z,78.87
2022-08-20T18:43:27.914Z,78.98
2022-08-20T18:46:31.465Z,79.08
2022-08-20T18:49:37.806Z,79.12
2022-08-20T18:52:46.830Z,79.21
2022-08-20T18:56:11.094Z,79.36
2022-08-20T18:59:18.981Z,79.48
2022-08-20T19:02:32.475Z,79.56
2022-08-20T19:06:06.044Z,79.63
2022-08-20T19:09:38.447Z,79.70
2022-08-20T19:12:41.242Z,79.57
2022-08-20T19:15:55.265Z,79.50
2022-08-20T19:18:58.558Z,79.42
2022-08-20T19:22:02.662Z,79.37
2022-08-20T19:25:06.639Z,79.30
2022-08-20T19:28:40.018Z,79.26
2022-08-20T19:31:43.459Z,79.25
2022-08-20T19:35:17.113Z,79.19
2022-08-20T19:38:21.502Z,79.22
2022-08-20T19:41:31.277Z,79.12
2022-08-20T19:44:42.212Z,79.17
2022-08-20T19:47:57.008Z,79.25
2022-08-20T19:51:20.477Z,79.14
2022-08-20T19:54:27.734Z,79.15
2022-08-20T19:57:30.850Z,79.22
2022-08-20T20:00:47.748Z,79.20
2022-08-20T20:03:57.840Z,79.19
2022-08-20T20:07:00.893Z,79.28
2022-08-20T20:10:07.605Z,79.29
2022-08-20T20:13:18.164Z,79.43
2022-08-20T20:16:21.858Z,79.44
2022-08-20T20:19:27.562Z,79.37
2022-08-20T20:22:53.819Z,79.34
2022-08-20T20:26:01.791Z,79.42
2022-08-20T20:29:13.851Z,79.34
2022-08-20T20:32:21.836Z,79.36
2022-08-20T20:35:32.416Z,79.25
2022-08-20T20:38:39.082Z,79.26
2022-08-20T20:41:52.419Z,79.36
2022-08-20T20:44:58.555Z,79.36
2022-08-20T20:48:20.486Z,79.49
2022-08-20T20:51:23.554Z,79.53
2022-08-20T20:54:34.668Z,79.50
2022-08-20T20:57:40.622Z,79.55
2022-08-20T21:00:44.118Z,79.66
2022-08-20T21:03:47.313Z,79.75
2022-08-20T21:06:52.462Z,79.73
2022-08-20T21:09:56.540Z,79.73
2022-08-20T21:12:59.975Z,79.82
2022-08-20T21:16:03.248Z,79.90
2022-08-20T21:19:07.418Z,79.95
2022-08-20T21:22:10.348Z,79.72
2022-08-20T21:25:13.499Z,79.52
2022-08-20T21:28:17.112Z,79.42
2022-08-20T21:31:20.009Z,79.36
2022-08-20T21:34:22.886Z,79.33
2022-08-20T21:37:25.828Z,79.39
2022-08-20T21:40:28.744Z,79.31
2022-08-20T21:43:32.754Z,79.29
2022-08-20T21:46:35.995Z,79.27
2022-08-20T21:49:38.941Z,79.21
2022-08-20T21:52:42.288Z,79.29
2022-08-20T21:55:57.103Z,79.42
2022-08-20T21:59:01.183Z,79.44
2022-08-20T22:02:04.573Z,79.52
2022-08-20T22:05:07.859Z,79.60
2022-08-20T22:08:11.117Z,79.60
2022-08-20T22:11:14.488Z,79.70
2022-08-20T22:14:18.409Z,79.67
2022-08-20T22:17:21.709Z,79.67
2022-08-20T22:20:25.027Z,79.76
2022-08-20T22:23:28.530Z,80.03
2022-08-20T22:26:34.847Z,80.10
2022-08-20T22:29:38.247Z,79.88
2022-08-20T22:32:51.981Z,79.79
2022-08-20T22:35:57.600Z,80.11
2022-08-20T22:39:00.537Z,79.76
2022-08-20T22:42:03.804Z,79.55
2022-08-20T22:45:12.321Z,79.37
2022-08-20T22:48:19.613Z,79.31
2022-08-20T22:51:34.927Z,79.29
2022-08-20T22:54:38.517Z,79.36
2022-08-20T22:57:47.829Z,79.40
2022-08-20T23:00:51.378Z,79.52
2022-08-20T23:04:02.969Z,79.62
2022-08-20T23:07:10.015Z,79.83
2022-08-20T23:10:15.920Z,80.00
2022-08-20T23:13:18.847Z,80.10
2022-08-20T23:16:21.736Z,80.23
2022-08-20T23:19:24.631Z,80.26
2022-08-20T23:22:27.562Z,80.25
2022-08-20T23:25:30.794Z,80.33
2022-08-20T23:28:33.834Z,80.33
2022-08-20T23:31:36.697Z,80.40
2022-08-20T23:34:40.139Z,80.35
2022-08-20T23:37:54.961Z,80.30
2022-08-20T23:40:57.838Z,80.24
2022-08-20T23:44:00.914Z,80.17
2022-08-20T23:47:04.320Z,80.20
2022-08-20T23:50:11.362Z,80.28
2022-08-20T23:53:14.343Z,80.31
2022-08-20T23:56:17.471Z,80.28
2022-08-20T23:59:20.409Z,80.26
